createdAt,value
2024-03-05T00:00:00.187Z,54.00
2024-03-05T00:03:02.567Z,57.87
2024-03-05T00:06:07.453Z,57.37
2024-03-05T00:09:09.868Z,56.03
2024-03-05T00:12:13.228Z,55.63
2024-03-05T00:15:17.237Z,52.13
2024-03-05T00:18:22.141Z,62.53
2024-03-05T00:21:24.814Z,63.40
2024-03-05T00:24:27.142Z,53.60
2024-03-05T00:27:29.753Z,58.47
2024-03-05T00:30:32.170Z,52.00
2024-03-05T00:33:34.988Z,47.37
2024-03-05T00:36:37.015Z,50.70
2024-03-05T00:39:40.569Z,45.77
2024-03-05T00:42:42.624Z,48.43
2024-03-05T00:45:47.666Z,44.23
2024-03-05T00:48:50.861Z,44.07
2024-03-05T00:51:54.395Z,51.13
2024-03-05T00:54:56.606Z,43.33
2024-03-05T00:57:59.198Z,44.67
2024-03-05T01:01:02.823Z,45.07
2024-03-05T01:04:06.210Z,46.70
2024-03-05T01:07:08.360Z,48.40
2024-03-05T01:10:11.217Z,47.20
2024-03-05T01:13:13.479Z,50.67
2024-03-05T01:16:16.071Z,48.77
2024-03-05T01:19:18.178Z,45.33
2024-03-05T01:22:20.716Z,49.40
2024-03-05T01:25:23.213Z,44.37
2024-03-05T01:28:26.192Z,43.63
2024-03-05T01:31:28.681Z,43.13
2024-03-05T01:34:31.221Z,41.13
2024-03-05T01:37:33.282Z,45.27
2024-03-05T01:40:36.316Z,44.17
2024-03-05T01:43:39.228Z,47.00
2024-03-05T01:46:41.924Z,40.23
2024-03-05T01:49:44.856Z,40.33
2024-03-05T01:52:47.890Z,35.23
2024-03-05T01:55:54.856Z,42.97
2024-03-05T01:58:57.956Z,40.90
2024-03-05T02:02:00.586Z,38.90
2024-03-05T02:05:03.700Z,37.60
2024-03-05T02:08:06.375Z,38.00
2024-03-05T02:11:09.752Z,35.93
2024-03-05T02:14:12.248Z,39.20
2024-03-05T02:17:16.750Z,40.13
2024-03-05T02:20:18.944Z,39.23
2024-03-05T02:23:22.831Z,37.23
2024-03-05T02:26:30.321Z,33.77
2024-03-05T02:29:40.193Z,33.23
2024-03-05T02:32:43.592Z,35.20
2024-03-05T02:35:49.243Z,42.67
2024-03-05T02:38:53.974Z,41.10
2024-03-05T02:41:56.591Z,40.43
2024-03-05T02:44:58.510Z,41.77
2024-03-05T02:48:07.557Z,42.00
2024-03-05T02:51:09.987Z,37.17
2024-03-05T02:54:12.510Z,40.57
2024-03-05T02:57:14.930Z,38.60
2024-03-05T03:00:21.037Z,38.37
2024-03-05T03:03:23.477Z,40.73
2024-03-05T03:06:25.931Z,40.80
2024-03-05T03:09:28.281Z,38.60
2024-03-05T03:12:30.889Z,41.60
2024-03-05T03:15:33.748Z,46.87
2024-03-05T03:18:37.255Z,41.93
2024-03-05T03:21:39.338Z,42.90
2024-03-05T03:24:41.630Z,41.50
2024-03-05T03:27:43.877Z,38.57
2024-03-05T03:30:46.256Z,44.63
2024-03-05T03:33:48.356Z,41.77
2024-03-05T03:36:51.020Z,39.50
2024-03-05T03:39:53.628Z,39.53
2024-03-05T03:42:56.142Z,45.57
2024-03-05T03:45:58.662Z,37.03
2024-03-05T03:49:01.041Z,40.03
2024-03-05T03:52:04.566Z,37.53
2024-03-05T03:55:07.858Z,37.10
2024-03-05T03:58:10.223Z,42.47
2024-03-05T04:01:12.916Z,39.40
2024-03-05T04:04:15.248Z,40.70
2024-03-05T04:07:20.289Z,42.60
2024-03-05T04:10:22.506Z,35.20
2024-03-05T04:13:25.257Z,38.30
2024-03-05T04:16:27.732Z,38.83
2024-03-05T04:19:32.108Z,43.07
2024-03-05T04:22:34.560Z,38.43
2024-03-05T04:25:41.136Z,40.93
2024-03-05T04:28:50.984Z,35.33
2024-03-05T04:32:10.528Z,36.60
2024-03-05T04:35:13.745Z,32.83
2024-03-05T04:38:17.527Z,34.70
2024-03-05T04:41:19.852Z,30.70
2024-03-05T04:44:22.549Z,35.47
2024-03-05T04:47:26.704Z,34.87
2024-03-05T04:50:29.223Z,28.10
2024-03-05T04:53:31.267Z,28.73
2024-03-05T04:56:34.427Z,31.53
2024-03-05T04:59:36.514Z,29.40
2024-03-05T05:02:39.164Z,25.33
2024-03-05T05:05:41.466Z,36.77
2024-03-05T05:08:44.792Z,31.47
2024-03-05T05:11:47.133Z,26.57
2024-03-05T05:14:50.887Z,30.33
2024-03-05T05:17:54.610Z,26.57
2024-03-05T05:20:57.544Z,29.87
2024-03-05T05:23:59.879Z,23.47
2024-03-05T05:27:02.568Z,26.13
2024-03-05T05:30:09.333Z,26.97
2024-03-05T05:33:16.303Z,31.43
2024-03-05T05:36:18.331Z,27.50
2024-03-05T05:39:25.582Z,32.10
2024-03-05T05:42:27.947Z,28.07
2024-03-05T05:45:31.836Z,24.67
2024-03-05T05:48:33.993Z,27.23
2024-03-05T05:51:36.984Z,27.37
2024-03-05T05:54:45.404Z,26.37
2024-03-05T05:57:55.055Z,27.70
2024-03-05T06:00:57.088Z,31.33
2024-03-05T06:03:59.974Z,27.80
2024-03-05T06:07:07.274Z,32.77
2024-03-05T06:10:15.938Z,25.43
2024-03-05T06:13:18.361Z,27.30
2024-03-05T06:16:20.896Z,32.17
2024-03-05T06:19:26.474Z,40.93
2024-03-05T06:22:34.168Z,26.17
2024-03-05T06:25:36.962Z,26.43
2024-03-05T06:28:39.708Z,29.47
2024-03-05T06:31:41.908Z,28.47
2024-03-05T06:34:44.297Z,30.77
2024-03-05T06:37:48.779Z,29.10
2024-03-05T06:40:51.369Z,25.07
2024-03-05T06:44:01.112Z,35.83
2024-03-05T06:47:06.275Z,28.40
2024-03-05T06:50:10.332Z,27.27
2024-03-05T06:53:33.982Z,26.57
2024-03-05T06:56:43.242Z,27.50
2024-03-05T06:59:45.978Z,30.17
2024-03-05T07:02:48.254Z,26.97
2024-03-05T07:05:51.100Z,27.50
2024-03-05T07:08:55.155Z,29.93
2024-03-05T07:11:58.337Z,30.80
2024-03-05T07:15:00.569Z,27.57
2024-03-05T07:18:03.385Z,24.33
2024-03-05T07:21:05.907Z,31.10
2024-03-05T07:24:08.350Z,33.53
2024-03-05T07:27:10.749Z,27.50
2024-03-05T07:30:16.643Z,27.27
2024-03-05T07:33:18.712Z,34.40
2024-03-05T07:36:22.262Z,27.27
2024-03-05T07:39:26.060Z,29.77
2024-03-05T07:42:29.618Z,30.30
2024-03-05T07:45:34.808Z,22.87
2024-03-05T07:48:38.396Z,30.10
2024-03-05T07:51:44.777Z,33.07
2024-03-05T07:54:48.036Z,20.40
2024-03-05T07:57:50.901Z,27.40
2024-03-05T08:00:53.429Z,28.57
2024-03-05T08:03:55.488Z,28.43
2024-03-05T08:06:58.776Z,21.33
2024-03-05T08:10:02.301Z,24.10
2024-03-05T08:13:04.849Z,26.37
2024-03-05T08:16:11.881Z,30.57
2024-03-05T08:19:14.639Z,31.40
2024-03-05T08:22:17.127Z,34.97
2024-03-05T08:25:21.328Z,26.10
2024-03-05T08:28:23.824Z,23.83
2024-03-05T08:31:27.307Z,26.20
2024-03-05T08:34:31.930Z,28.83
2024-03-05T08:37:34.819Z,23.10
2024-03-05T08:40:37.206Z,34.70
2024-03-05T08:43:40.202Z,21.20
2024-03-05T08:46:43.024Z,26.57
2024-03-05T08:49:47.582Z,51.17
2024-03-05T08:52:50.485Z,24.90
2024-03-05T08:55:53.939Z,28.90
2024-03-05T08:58:55.939Z,81.97
2024-03-05T09:01:58.360Z,21.77
2024-03-05T09:05:01.060Z,23.57
2024-03-05T09:08:04.028Z,22.50
2024-03-05T09:11:07.126Z,26.73
2024-03-05T09:14:11.064Z,20.93
2024-03-05T09:17:13.709Z,22.30
2024-03-05T09:20:17.603Z,17.80
2024-03-05T09:23:20.716Z,25.83
2024-03-05T09:26:23.089Z,32.87
2024-03-05T09:29:25.413Z,25.17
2024-03-05T09:32:27.798Z,19.27
2024-03-05T09:35:29.891Z,18.97
2024-03-05T09:38:32.854Z,22.90
2024-03-05T09:41:41.486Z,16.83
2024-03-05T09:44:46.075Z,19.33
2024-03-05T09:47:49.602Z,20.17
2024-03-05T09:50:54.276Z,35.33
2024-03-05T09:53:58.297Z,17.30
2024-03-05T09:57:02.510Z,20.37
2024-03-05T10:00:07.100Z,15.23
2024-03-05T10:03:10.232Z,15.37
2024-03-05T10:06:13.076Z,19.83
2024-03-05T10:09:21.595Z,15.23
2024-03-05T10:12:25.414Z,14.97
2024-03-05T10:15:28.126Z,19.83
2024-03-05T10:18:35.410Z,17.40
2024-03-05T10:21:37.964Z,23.40
2024-03-05T10:24:40.146Z,22.03
2024-03-05T10:27:46.792Z,17.10
2024-03-05T10:30:59.707Z,21.53
2024-03-05T10:34:02.441Z,16.07
2024-03-05T10:37:08.400Z,28.57
2024-03-05T10:40:11.700Z,27.97
2024-03-05T10:43:19.488Z,18.03
2024-03-05T10:46:23.648Z,16.53
2024-03-05T10:49:26.912Z,24.70
2024-03-05T10:52:31.936Z,16.47
2024-03-05T10:55:35.743Z,20.00
2024-03-05T10:58:41.868Z,19.13
2024-03-05T11:01:46.464Z,16.70
2024-03-05T11:04:51.317Z,16.63
2024-03-05T11:07:55.522Z,15.87
2024-03-05T11:11:16.660Z,16.67
2024-03-05T11:14:20.034Z,14.80
2024-03-05T11:17:23.940Z,17.90
2024-03-05T11:20:41.871Z,20.57
2024-03-05T11:23:56.492Z,16.17
2024-03-05T11:27:13.797Z,15.40
2024-03-05T11:30:19.431Z,15.23
2024-03-05T11:33:25.957Z,13.37
2024-03-05T11:36:28.446Z,17.33
2024-03-05T11:39:31.306Z,16.03
2024-03-05T11:42:37.041Z,17.60
2024-03-05T11:45:44.381Z,16.63
2024-03-05T11:48:46.486Z,15.20
2024-03-05T11:51:49.281Z,13.00
2024-03-05T11:55:07.130Z,15.47
2024-03-05T11:58:10.883Z,14.33
2024-03-05T12:01:16.645Z,18.13
2024-03-05T12:04:19.295Z,43.70
2024-03-05T12:07:21.478Z,43.70
2024-03-05T12:10:27.374Z,27.07
2024-03-05T12:13:30.634Z,27.43
2024-03-05T12:16:34.566Z,13.00
2024-03-05T12:19:39.049Z,59.70
2024-03-05T12:22:56.196Z,63.80
2024-03-05T12:25:58.343Z,18.30
2024-03-05T12:29:03.392Z,18.07
2024-03-05T12:32:08.515Z,11.20
2024-03-05T12:35:13.907Z,35.47
2024-03-05T12:38:17.223Z,13.93
2024-03-05T12:41:23.574Z,33.87
2024-03-05T12:44:25.986Z,31.20
2024-03-05T12:47:28.800Z,26.67
2024-03-05T12:50:31.158Z,29.73
2024-03-05T12:53:33.931Z,63.93
2024-03-05T12:56:45.135Z,36.70
2024-03-05T12:59:48.746Z,36.50
2024-03-05T13:02:50.887Z,24.87
2024-03-05T13:05:53.240Z,52.90
2024-03-05T13:08:55.601Z,26.83
2024-03-05T13:11:58.034Z,45.80
2024-03-05T13:15:00.604Z,25.10
2024-03-05T13:18:03.622Z,22.23
2024-03-05T13:21:07.697Z,18.27
2024-03-05T13:24:12.516Z,40.70
2024-03-05T13:27:14.552Z,37.07
2024-03-05T13:30:18.424Z,22.10
2024-03-05T13:33:24.837Z,21.53
2024-03-05T13:36:27.347Z,37.90
2024-03-05T13:39:29.449Z,36.73
2024-03-05T13:42:35.038Z,25.07
2024-03-05T13:45:38.300Z,43.20
2024-03-05T13:48:41.257Z,41.03
2024-03-05T13:51:43.296Z,22.00
2024-03-05T13:54:46.241Z,32.47
2024-03-05T13:57:50.284Z,17.10
2024-03-05T14:00:54.585Z,22.23
2024-03-05T14:03:57.403Z,26.53
2024-03-05T14:07:00.096Z,18.13
2024-03-05T14:10:02.471Z,37.03
2024-03-05T14:13:14.759Z,29.23
2024-03-05T14:16:19.199Z,21.23
2024-03-05T14:19:24.170Z,41.50
2024-03-05T14:22:26.652Z,19.40
2024-03-05T14:25:31.163Z,21.10
2024-03-05T14:28:34.260Z,25.40
2024-03-05T14:31:38.198Z,17.40
2024-03-05T14:34:41.090Z,16.33
2024-03-05T14:37:44.245Z,16.10
2024-03-05T14:40:46.785Z,25.73
2024-03-05T14:43:50.411Z,51.27
2024-03-05T14:46:52.953Z,42.77
2024-03-05T14:49:55.617Z,27.80
2024-03-05T14:52:58.125Z,33.97
2024-03-05T14:56:00.624Z,15.40
2024-03-05T14:59:05.354Z,13.73
2024-03-05T15:02:07.716Z,20.70
2024-03-05T15:05:13.378Z,15.40
2024-03-05T15:08:15.921Z,14.80
2024-03-05T15:11:19.007Z,23.10
2024-03-05T15:14:21.037Z,18.37
2024-03-05T15:17:23.702Z,21.80
2024-03-05T15:20:26.054Z,14.97
2024-03-05T15:23:28.756Z,23.10
2024-03-05T15:26:31.026Z,18.17
2024-03-05T15:29:33.887Z,16.83
2024-03-05T15:32:36.374Z,19.60
2024-03-05T15:35:38.783Z,17.93
2024-03-05T15:38:40.787Z,24.67
2024-03-05T15:41:43.210Z,19.87
2024-03-05T15:44:45.393Z,17.43
2024-03-05T15:47:48.545Z,19.27
2024-03-05T15:50:51.957Z,20.27
2024-03-05T15:53:54.228Z,18.47
2024-03-05T15:56:59.448Z,18.67
2024-03-05T16:00:13.011Z,22.10
2024-03-05T16:03:17.505Z,18.37
2024-03-05T16:06:20.581Z,19.70
2024-03-05T16:09:22.728Z,19.30
2024-03-05T16:12:25.433Z,26.10
2024-03-05T16:15:28.478Z,45.33
2024-03-05T16:18:30.941Z,37.70
2024-03-05T16:21:34.636Z,41.27
2024-03-05T16:24:37.103Z,110.27
2024-03-05T16:27:46.311Z,60.93
2024-03-05T16:30:49.539Z,25.93
2024-03-05T16:33:51.679Z,20.20
2024-03-05T16:36:53.978Z,22.13
2024-03-05T16:39:56.109Z,20.43
2024-03-05T16:43:00.298Z,85.00
2024-03-05T16:46:02.426Z,51.10
2024-03-05T16:49:05.131Z,29.70
2024-03-05T16:52:07.827Z,77.97
2024-03-05T16:55:17.617Z,84.63
2024-03-05T16:58:20.118Z,43.37
2024-03-05T17:01:23.975Z,37.77
2024-03-05T17:04:28.938Z,67.23
2024-03-05T17:07:33.959Z,47.63
2024-03-05T17:10:36.836Z,44.43
2024-03-05T17:13:43.027Z,29.13
2024-03-05T17:16:47.751Z,24.90
2024-03-05T17:19:50.680Z,42.03
2024-03-05T17:22:54.429Z,26.13
2024-03-05T17:25:58.135Z,24.10
2024-03-05T17:29:07.076Z,23.67
2024-03-05T17:32:11.405Z,39.20
2024-03-05T17:35:15.959Z,96.43
2024-03-05T17:38:19.996Z,25.57
2024-03-05T17:41:22.540Z,25.93
2024-03-05T17:44:25.187Z,19.93
2024-03-05T17:47:27.601Z,19.43
2024-03-05T17:50:33.629Z,22.30
2024-03-05T17:53:36.531Z,23.63
2024-03-05T17:56:39.187Z,56.13
2024-03-05T17:59:41.194Z,67.77
2024-03-05T18:02:43.608Z,19.20
2024-03-05T18:05:47.253Z,36.57
2024-03-05T18:08:50.559Z,19.23
2024-03-05T18:11:53.507Z,16.13
2024-03-05T18:14:56.258Z,16.93
2024-03-05T18:17:58.545Z,15.50
2024-03-05T18:21:01.251Z,16.67
2024-03-05T18:24:06.291Z,14.60
2024-03-05T18:27:16.143Z,13.30
2024-03-05T18:30:20.448Z,13.30
2024-03-05T18:33:23.597Z,13.40
2024-03-05T18:36:27.571Z,13.60
2024-03-05T18:39:30.259Z,15.30
2024-03-05T18:42:33.189Z,13.60
2024-03-05T18:45:36.478Z,20.40
2024-03-05T18:48:38.730Z,20.23
2024-03-05T18:51:41.683Z,15.47
2024-03-05T18:54:44.373Z,17.10
2024-03-05T18:57:46.808Z,15.13
2024-03-05T19:00:51.448Z,14.60
2024-03-05T19:03:58.763Z,18.93
2024-03-05T19:07:07.375Z,21.10
2024-03-05T19:10:11.195Z,20.10
2024-03-05T19:13:13.821Z,18.53
2024-03-05T19:16:17.928Z,19.30
2024-03-05T19:19:20.092Z,20.37
2024-03-05T19:22:22.507Z,29.30
2024-03-05T19:25:29.447Z,51.77
2024-03-05T19:28:35.858Z,45.67
2024-03-05T19:31:43.947Z,34.77
2024-03-05T19:34:47.267Z,24.10
2024-03-05T19:37:49.555Z,24.53
2024-03-05T19:40:52.825Z,22.13
2024-03-05T19:43:55.016Z,23.13
2024-03-05T19:46:57.905Z,28.00
2024-03-05T19:50:06.275Z,24.37
2024-03-05T19:53:10.814Z,19.70
2024-03-05T19:56:13.033Z,20.30
2024-03-05T19:59:16.100Z,17.37
2024-03-05T20:02:18.519Z,21.90
2024-03-05T20:05:23.412Z,104.30
2024-03-05T20:08:29.723Z,113.70
2024-03-05T20:11:33.078Z,109.20
2024-03-05T20:14:35.647Z,81.47
2024-03-05T20:17:39.443Z,63.40
2024-03-05T20:20:43.084Z,74.37
2024-03-05T20:23:48.649Z,70.93
2024-03-05T20:26:50.825Z,70.27
2024-03-05T20:29:54.001Z,65.23
2024-03-05T20:32:56.362Z,49.97
2024-03-05T20:35:59.280Z,38.27
2024-03-05T20:39:04.355Z,43.80
2024-03-05T20:42:07.163Z,45.00
2024-03-05T20:45:11.586Z,47.47
2024-03-05T20:48:14.736Z,49.73
2024-03-05T20:51:17.035Z,44.07
2024-03-05T20:54:20.561Z,58.60
2024-03-05T20:57:24.197Z,57.57
2024-03-05T21:00:28.223Z,41.17
2024-03-05T21:03:31.761Z,54.70
2024-03-05T21:06:34.205Z,48.67
2024-03-05T21:09:36.221Z,41.13
2024-03-05T21:12:39.264Z,47.33
2024-03-05T21:15:41.446Z,59.33
2024-03-05T21:18:44.144Z,71.17
2024-03-05T21:21:47.729Z,74.17
2024-03-05T21:24:51.958Z,74.13
2024-03-05T21:27:54.499Z,65.97
2024-03-05T21:30:57.472Z,55.87
2024-03-05T21:33:59.773Z,49.03
2024-03-05T21:37:02.519Z,33.57
2024-03-05T21:40:15.200Z,31.80
2024-03-05T21:43:17.656Z,36.77
2024-03-05T21:46:21.497Z,36.87
2024-03-05T21:49:24.191Z,46.93
2024-03-05T21:52:26.994Z,35.17
2024-03-05T21:55:29.571Z,22.93
2024-03-05T21:58:31.919Z,25.90
2024-03-05T22:01:34.885Z,23.57
2024-03-05T22:04:37.341Z,18.87
2024-03-05T22:07:40.069Z,210.57
2024-03-05T22:10:42.298Z,165.20
2024-03-05T22:13:45.077Z,40.47
2024-03-05T22:16:47.645Z,33.37
2024-03-05T22:19:50.143Z,160.07
2024-03-05T22:22:52.622Z,40.57
2024-03-05T22:25:57.281Z,44.83
2024-03-05T22:28:59.551Z,52.60
2024-03-05T22:32:02.297Z,39.47
2024-03-05T22:35:04.993Z,39.00
2024-03-05T22:38:07.757Z,36.37
2024-03-05T22:41:10.155Z,29.20
2024-03-05T22:44:12.683Z,30.90
2024-03-05T22:47:15.126Z,47.83
2024-03-05T22:50:17.673Z,67.20
2024-03-05T22:53:19.788Z,70.80
2024-03-05T22:56:22.498Z,70.80
2024-03-05T22:59:24.895Z,64.90
2024-03-05T23:02:27.316Z,97.00
2024-03-05T23:05:29.399Z,97.47
2024-03-05T23:08:33.589Z,108.53
2024-03-05T23:11:35.823Z,78.77
2024-03-05T23:14:38.266Z,94.67
2024-03-05T23:17:43.725Z,99.87
2024-03-05T23:20:46.195Z,105.20
2024-03-05T23:23:50.570Z,120.30
2024-03-05T23:26:54.374Z,122.20
2024-03-05T23:29:56.765Z,118.73
2024-03-05T23:32:59.526Z,113.83
2024-03-05T23:36:01.697Z,89.97
2024-03-05T23:39:04.270Z,83.67
2024-03-05T23:42:06.906Z,53.13
2024-03-05T23:45:10.844Z,71.80
2024-03-05T23:48:13.266Z,80.77
2024-03-05T23:51:15.989Z,99.93
2024-03-05T23:54:18.664Z,121.07
2024-03-05T23:57:21.140Z,347.90
